»·PEaware :: UAL2260 KPDX-KRDM

UAL2260 :: KPDX-KRDM

FLIGHT INFORMATION

Flight Status: Arrived
Operator:
United Airlines
More flights by this operator :: More flights under this callsign
Pilot: Aaron F. (12391)
Aircraft: BOEING 737-300
(B733)
More flights by this aircraft type
Origin: KPDX Portland Intl
United States
Destination: KRDM Roberts
United States
More flights between these airports :: More routes between these airports
Route: +PTLD1 CUKIS T302 CUPRI
File this flight plan on PilotEdge
Remarks: XPlane 11
Altitude:
(Current/Filed)
13,000ft
Speed:
(Current/Filed)
320kts
Departed: 11-Jan-19 09:13 PM
Arrived: 11-Jan-19 09:55 PM
Distance/Time
Traveled:
101nm/0:42
Distance/Time
To Go:
Arrived

Flight Plot

Page will automatically refresh every two minutes.

Flight plan parsing failed; only flown route is shown


Map Options




Map Legend


Flown Route
Filed Route
Departure Airport
Arrival Airport
Navaid (VOR, NDB)
Fix

Horizontal Profiles

Position Reports

Time Latitude Longitude Heading Altitude Ground
Speed
11-Jan-19 20:50 45.586921 -122.593129 41 23ft 0kts
11-Jan-19 20:51 45.586921 -122.593129 41 23ft 0kts
11-Jan-19 20:52 45.586921 -122.593129 41 23ft 0kts
11-Jan-19 20:53 45.586921 -122.593129 41 23ft 0kts
11-Jan-19 20:54 45.586921 -122.593129 41 23ft 0kts
11-Jan-19 20:55 45.586921 -122.593129 41 23ft 0kts
11-Jan-19 20:56 45.586921 -122.593129 41 23ft 0kts
11-Jan-19 20:57 45.586921 -122.593129 41 23ft 0kts
11-Jan-19 20:58 45.586921 -122.593129 41 23ft 0kts
11-Jan-19 20:59 45.586921 -122.593129 41 23ft 0kts
11-Jan-19 21:00 45.586921 -122.593129 41 23ft 0kts
11-Jan-19 21:01 45.586921 -122.593129 41 23ft 0kts
11-Jan-19 21:02 45.586921 -122.593129 41 23ft 0kts
11-Jan-19 21:03 45.586890 -122.593169 41 23ft 2kts
11-Jan-19 21:04 45.586389 -122.593448 355 23ft 2kts
11-Jan-19 21:05 45.585921 -122.593124 309 24ft 1kts
11-Jan-19 21:06 45.585898 -122.593084 310 23ft 0kts
11-Jan-19 21:07 45.587210 -122.595930 298 23ft 17kts
11-Jan-19 21:08 45.589838 -122.602556 298 23ft 17kts
11-Jan-19 21:09 45.591855 -122.608214 299 23ft 18kts
11-Jan-19 21:10 45.594705 -122.615474 299 23ft 22kts
11-Jan-19 21:11 45.594739 -122.620390 119 23ft 21kts
11-Jan-19 21:12 45.574836 -122.568103 114 1179ft 220kts
11-Jan-19 21:13 45.544736 -122.493607 117 3357ft 213kts
11-Jan-19 21:14 45.513171 -122.423515 150 5543ft 212kts
11-Jan-19 21:15 45.449776 -122.403155 163 7839ft 245kts
11-Jan-19 21:16 45.383238 -122.377202 163 10062ft 252kts
11-Jan-19 21:17 45.323681 -122.324621 134 12284ft 276kts
11-Jan-19 21:18 45.266077 -122.234232 135 12977ft 337kts
11-Jan-19 21:19 45.201837 -122.135100 135 13021ft 340kts
11-Jan-19 21:20 45.137077 -122.035741 135 13018ft 340kts
11-Jan-19 21:21 45.072475 -121.936993 135 13019ft 338kts
11-Jan-19 21:22 45.008432 -121.839396 136 13072ft 335kts
11-Jan-19 21:23 44.944586 -121.742546 136 13155ft 332kts
11-Jan-19 21:25 44.881668 -121.647542 136 13174ft 332kts
11-Jan-19 21:26 44.817980 -121.551608 136 13132ft 333kts
11-Jan-19 21:27 44.754264 -121.455817 136 13109ft 333kts
11-Jan-19 21:28 44.690149 -121.360129 136 13110ft 332kts
11-Jan-19 21:29 44.626412 -121.266075 137 13110ft 332kts
11-Jan-19 21:30 44.562285 -121.171954 137 13108ft 333kts
11-Jan-19 21:31 44.489305 -121.096027 176 13107ft 330kts
11-Jan-19 21:32 44.422760 -121.171925 256 13111ft 353kts
11-Jan-19 21:33 44.447421 -121.309068 284 13111ft 368kts
11-Jan-19 21:34 44.480881 -121.444906 284 13110ft 368kts
11-Jan-19 21:35 44.514464 -121.581129 284 13110ft 368kts
11-Jan-19 21:36 44.548051 -121.717354 284 13106ft 367kts
11-Jan-19 21:37 44.622656 -121.808282 356 13112ft 388kts
11-Jan-19 21:38 44.704379 -121.732006 78 13098ft 362kts
11-Jan-19 21:39 44.708134 -121.606303 94 13112ft 353kts
11-Jan-19 21:40 44.684747 -121.486674 122 13147ft 308kts
11-Jan-19 21:41 44.653901 -121.387691 117 13119ft 254kts
11-Jan-19 21:42 44.627337 -121.289251 116 13104ft 278kts
11-Jan-19 21:43 44.607412 -121.181781 107 13111ft 283kts
11-Jan-19 21:43 44.585216 -121.096516 119 13111ft 278kts
11-Jan-19 21:44 44.547127 -121.002006 133 12961ft 278kts
11-Jan-19 21:46 44.487509 -120.911957 148 10607ft 260kts
11-Jan-19 21:47 44.428447 -120.854233 148 8595ft 252kts
11-Jan-19 21:48 44.371593 -120.854966 243 6600ft 221kts
11-Jan-19 21:49 44.344460 -120.926696 242 5064ft 193kts
11-Jan-19 21:50 44.322041 -120.983586 243 5163ft 146kts
11-Jan-19 21:50 44.305805 -121.023923 242 4958ft 141kts
11-Jan-19 21:51 44.287068 -121.069779 242 4177ft 141kts
11-Jan-19 21:52 44.267449 -121.117911 242 3410ft 142kts
11-Jan-19 21:53 44.252246 -121.155046 240 3078ft 47kts
11-Jan-19 21:54 44.250859 -121.162501 12 3071ft 2kts
11-Jan-19 21:55 44.252262 -121.159468 59 3074ft 18kts
11-Jan-19 21:56 44.252924 -121.158886 330 3073ft 0kts
11-Jan-19 21:57 44.252924 -121.158886 330 3073ft 0kts
11-Jan-19 21:58 44.252924 -121.158886 330 3073ft 0kts
11-Jan-19 21:59 44.252924 -121.158886 330 3073ft 0kts
11-Jan-19 22:00 44.252924 -121.158886 330 3073ft 0kts
11-Jan-19 22:01 44.252924 -121.158886 330 3073ft 0kts
11-Jan-19 22:02 44.252924 -121.158886 330 3073ft 0kts
11-Jan-19 22:03 44.252924 -121.158886 330 3073ft 0kts
11-Jan-19 22:04 44.252924 -121.158886 330 3073ft 0kts
11-Jan-19 22:05 44.252924 -121.158886 330 3073ft 0kts
11-Jan-19 22:06 44.252924 -121.158886 330 3073ft 0kts
11-Jan-19 22:07 44.252924 -121.158886 330 3073ft 0kts
11-Jan-19 22:08 44.252924 -121.158886 330 3073ft 0kts

Navigation Log

Ident Type
Flight plan parsing failed, navigation log unavailable